Laughlin Air Force Base, TX

21:22 CST le 26 janvier 2015 (GMT -0600)
Del Rio Laughlin AFB | Change Station
CLOSE
Current Station
Aéroport
Location: Del Rio Laughlin AFB,
Altitude: 1083 ft
Stations météo à proximité

Alt. 1083 ft 29.36 °N, 100.78 °W | Updated 24 minutes ago

Partiellement nuageux
Partiellement nuageux
50 ° F
Paraît 50 ° F
N
0
Vent Variable Vent de Nord

Aujourd'hui
Haut(e) -- | Bas -- ° F
--% Risque de précip.
Hier
Haut(e) -- | Bas -- ° F
Precip. -- pouce
7:35 AM 6:16 PM
Lune montante, 49% visible
Pression 30.24 pouce
Visibilité 10.0 Miles terrestres
Nuages Ciel dégagé
Point de rosée 41 ° F
Humidité 69%
Précipitations 0.00 pouce
Profondeur de la couche neigeuse Non disponible.
UV 0 sur 12
Pollen 7.00 sur 12
Qualité de l'air Non disponible.
Flu Activity Non disponible.
METAR KDLF 270258Z AUTO 00000KT 10SM CLR 10/05 A3023 RMK AO2 SLP238 T01030049 52010 $

More Conditions Fewer Conditions

Pression 30.24 pouce
Visibilité 10.0 Miles terrestres
Nuages Ciel dégagé
Point de rosée 41 ° F
Humidité 69%
Précipitations 0.00 pouce
Profondeur de la couche neigeuse Non disponible.
UV 0 sur 12
Pollen 7.00 sur 12
Qualité de l'air Non disponible.
Flu Activity Non disponible.
METAR KDLF 270258Z AUTO 00000KT 10SM CLR 10/05 A3023 RMK AO2 SLP238 T01030049 52010 $

More Conditions Fewer Conditions

10-Day Weather Forecast

Almanac

Astronomie

Jan. 26, 2015 Lever Coucher
Temps réel
Crépuscule civil
Crépuscule nautique
Crépuscule astronomique
Lune
Durée de lumière visible
Longueur du jour
Tomorrow will be .
, % of the Moon is Illuminated

Extrêmes aujourd'hui

State Highs State Lows

Community

WunderPhotos

Upload Photos

1,790,499 Photos téléchargées !

WunderBlogs® & News

Nearby

Qualité de l'air

  Qualité de l'air Indice de la qualité de l'air Polluant
Not available.

Épaisseur de neige

Station Depth Altitude

Activité sismique

Ville Distance Mag. Time & Date
Minimum magnitude displayed is 2.5.

Températures des eaux côtières

Lieu Température

Stations météo à proximité